Air Navigation Services of Czech Republic
Airport: LKLN Updated:  07.02.2023 13:31:32  UTC
 METAR LKLN 07.02. 13:30 RRA
METAR LKLN 071330Z AUTO 04003KT 330V110 CAVOK 01/M09 Q1038=